createdAt,value
2023-04-16T00:02:28.250Z,96952.78
2023-04-16T00:05:14.930Z,96958.66
2023-04-16T00:08:00.684Z,96959.44
2023-04-16T00:10:46.340Z,96952.44
2023-04-16T00:13:31.782Z,96948.81
2023-04-16T00:16:17.360Z,96952.03
2023-04-16T00:19:02.790Z,96955.28
2023-04-16T00:21:48.120Z,96949.88
2023-04-16T00:24:33.668Z,96951.50
2023-04-16T00:27:20.344Z,96951.94
2023-04-16T00:30:08.889Z,96949.31
2023-04-16T00:32:54.702Z,96955.34
2023-04-16T00:35:40.125Z,96952.56
2023-04-16T00:38:29.943Z,96956.16
2023-04-16T00:41:15.614Z,96957.97
2023-04-16T00:44:01.598Z,96960.56
2023-04-16T00:46:47.548Z,96969.25
2023-04-16T00:49:33.495Z,96960.56
2023-04-16T00:52:18.912Z,96964.66
2023-04-16T00:55:07.545Z,96964.47
2023-04-16T00:57:53.648Z,96971.94
2023-04-16T01:00:38.913Z,96970.13
2023-04-16T01:03:30.902Z,96970.94
2023-04-16T01:06:18.139Z,96973.56
2023-04-16T01:09:03.959Z,96970.28
2023-04-16T01:11:49.573Z,96977.34
2023-04-16T01:14:36.574Z,96969.06
2023-04-16T01:17:21.935Z,96966.63
2023-04-16T01:20:07.677Z,96972.22
2023-04-16T01:22:53.003Z,96975.03
2023-04-16T01:25:39.660Z,96969.16
2023-04-16T01:28:25.470Z,96971.19
2023-04-16T01:31:10.979Z,96973.97
2023-04-16T01:34:16.810Z,96972.16
2023-04-16T01:37:04.286Z,96975.78
2023-04-16T01:39:50.442Z,96968.91
2023-04-16T01:42:36.201Z,96986.25
2023-04-16T01:45:21.914Z,96984.63
2023-04-16T01:48:08.558Z,96986.25
2023-04-16T01:50:53.953Z,96982.81
2023-04-16T01:53:39.631Z,96984.81
2023-04-16T01:56:25.530Z,96994.28
2023-04-16T01:59:12.440Z,96990.03
2023-04-16T02:02:11.202Z,96982.38
2023-04-16T02:04:57.689Z,96991.03
2023-04-16T02:07:43.178Z,96992.03
2023-04-16T02:10:28.383Z,96988.59
2023-04-16T02:13:15.784Z,96986.97
2023-04-16T02:16:03.941Z,96995.47
2023-04-16T02:19:16.211Z,96989.25
2023-04-16T02:22:02.567Z,96987.44
2023-04-16T02:24:47.798Z,96987.63
2023-04-16T02:27:33.299Z,96992.22
2023-04-16T02:30:31.283Z,96995.47
2023-04-16T02:33:16.863Z,97003.31
2023-04-16T02:36:16.873Z,97003.91
2023-04-16T02:39:02.313Z,97014.38
2023-04-16T02:41:47.762Z,97010.78
2023-04-16T02:44:33.307Z,97007.16
2023-04-16T02:47:18.730Z,97002.56
2023-04-16T02:50:04.524Z,97011.66
2023-04-16T02:52:51.610Z,97017.34
2023-04-16T02:55:37.690Z,97015.16
2023-04-16T02:58:25.752Z,97018.22
2023-04-16T03:01:11.462Z,97019.47
2023-04-16T03:03:57.077Z,97017.28
2023-04-16T03:06:42.637Z,97017.94
2023-04-16T03:09:28.272Z,97021.19
2023-04-16T03:12:13.808Z,97025.59
2023-04-16T03:14:59.256Z,97025.16
2023-04-16T03:17:45.115Z,97027.97
2023-04-16T03:20:30.919Z,97030.13
2023-04-16T03:23:16.707Z,97035.38
2023-04-16T03:26:03.282Z,97032.94
2023-04-16T03:28:49.241Z,97041.59
2023-04-16T03:31:35.367Z,97051.25
2023-04-16T03:34:21.428Z,97052.06
2023-04-16T03:37:07.175Z,97059.91
2023-04-16T03:39:53.461Z,97060.09
2023-04-16T03:42:39.233Z,97071.38
2023-04-16T03:45:24.972Z,97072.34
2023-04-16T03:48:10.901Z,97078.59
2023-04-16T03:50:56.353Z,97082.66
2023-04-16T03:53:41.762Z,97083.00
2023-04-16T03:56:27.687Z,97089.06
2023-04-16T03:59:13.211Z,97089.06
2023-04-16T04:01:58.884Z,97089.88
2023-04-16T04:04:45.201Z,97088.06
2023-04-16T04:07:31.110Z,97088.88
2023-04-16T04:10:16.976Z,97083.84
2023-04-16T04:13:04.411Z,97094.47
2023-04-16T04:15:50.344Z,97097.28
2023-04-16T04:18:35.978Z,97096.47
2023-04-16T04:21:23.653Z,97108.72
2023-04-16T04:24:09.354Z,97099.09
2023-04-16T04:26:55.052Z,97105.31
2023-04-16T04:29:40.524Z,97112.34
2023-04-16T04:32:26.107Z,97107.94
2023-04-16T04:35:11.798Z,97113.34
2023-04-16T04:37:57.643Z,97124.19
2023-04-16T04:40:43.155Z,97112.72
2023-04-16T04:43:28.649Z,97118.59
2023-04-16T04:46:14.185Z,97122.47
2023-04-16T04:48:59.962Z,97114.41
2023-04-16T04:51:45.419Z,97118.84
2023-04-16T04:54:31.818Z,97121.66
2023-04-16T04:57:17.427Z,97112.97
2023-04-16T05:00:04.399Z,97119.66
2023-04-16T05:02:58.010Z,97122.47
2023-04-16T05:05:43.400Z,97124.28
2023-04-16T05:08:28.953Z,97133.28
2023-04-16T05:11:14.491Z,97130.41
2023-04-16T05:13:59.935Z,97137.19
2023-04-16T05:16:45.694Z,97137.06
2023-04-16T05:19:31.610Z,97148.72
2023-04-16T05:22:19.040Z,97142.75
2023-04-16T05:25:04.917Z,97151.97
2023-04-16T05:27:50.383Z,97152.50
2023-04-16T05:30:36.097Z,97150.41
2023-04-16T05:33:21.837Z,97150.88
2023-04-16T05:36:07.458Z,97154.13
2023-04-16T05:38:53.235Z,97156.56
2023-04-16T05:41:38.670Z,97166.19
2023-04-16T05:44:24.128Z,97163.75
2023-04-16T05:47:09.665Z,97168.00
2023-04-16T05:49:55.012Z,97166.03
2023-04-16T05:52:40.697Z,97170.69
2023-04-16T05:55:26.175Z,97168.38
2023-04-16T05:58:11.683Z,97170.44
2023-04-16T06:00:57.043Z,97185.06
2023-04-16T06:03:42.796Z,97182.72
2023-04-16T06:06:28.531Z,97188.88
2023-04-16T06:09:13.914Z,97195.66
2023-04-16T06:12:00.043Z,97197.63
2023-04-16T06:14:45.797Z,97191.66
2023-04-16T06:17:31.206Z,97192.09
2023-04-16T06:20:16.940Z,97192.34
2023-04-16T06:23:02.241Z,97197.31
2023-04-16T06:25:47.784Z,97196.16
2023-04-16T06:28:33.149Z,97204.44
2023-04-16T06:31:18.548Z,97208.38
2023-04-16T06:34:03.930Z,97200.44
2023-04-16T06:36:49.356Z,97199.50
2023-04-16T06:39:34.977Z,97197.75
2023-04-16T06:42:20.850Z,97194.59
2023-04-16T06:45:07.311Z,97196.09
2023-04-16T06:47:53.275Z,97200.16
2023-04-16T06:50:39.003Z,97198.34
2023-04-16T06:53:24.774Z,97195.03
2023-04-16T06:56:10.438Z,97197.34
2023-04-16T06:58:57.903Z,97194.34
2023-04-16T07:01:43.892Z,97192.97
2023-04-16T07:04:29.397Z,97196.41
2023-04-16T07:07:14.966Z,97191.59
2023-04-16T07:10:00.549Z,97183.97
2023-04-16T07:12:46.033Z,97193.31
2023-04-16T07:15:31.580Z,97190.38
2023-04-16T07:18:17.522Z,97187.41
2023-04-16T07:21:04.453Z,97193.13
2023-04-16T07:23:50.714Z,97183.13
2023-04-16T07:26:37.902Z,97186.19
2023-04-16T07:29:23.633Z,97194.13
2023-04-16T07:32:09.398Z,97193.22
2023-04-16T07:34:56.037Z,97197.50
2023-04-16T07:37:41.768Z,97202.44
2023-04-16T07:40:27.973Z,97200.22
2023-04-16T07:43:16.278Z,97200.44
2023-04-16T07:46:01.827Z,97208.16
2023-04-16T07:48:47.925Z,97204.56
2023-04-16T07:51:33.561Z,97216.09
2023-04-16T07:54:20.059Z,97210.66
2023-04-16T07:57:05.564Z,97216.56
2023-04-16T07:59:51.459Z,97214.75
2023-04-16T08:02:37.395Z,97216.97
2023-04-16T08:05:22.866Z,97227.06
2023-04-16T08:08:08.321Z,97229.94
2023-04-16T08:10:56.005Z,97229.31
2023-04-16T08:13:41.600Z,97228.31
2023-04-16T08:16:27.159Z,97228.69
2023-04-16T08:19:13.068Z,97231.75
2023-04-16T08:21:59.168Z,97235.38
2023-04-16T08:24:44.740Z,97234.91
2023-04-16T08:27:30.141Z,97241.53
2023-04-16T08:30:16.835Z,97232.78
2023-04-16T08:33:02.976Z,97239.03
2023-04-16T08:35:48.533Z,97252.16
2023-04-16T08:38:34.418Z,97246.16
2023-04-16T08:41:22.223Z,97240.38
2023-04-16T08:44:09.717Z,97253.06
2023-04-16T08:46:59.427Z,97256.44
2023-04-16T08:49:48.754Z,97253.88
2023-04-16T08:52:42.838Z,97253.59
2023-04-16T08:55:37.842Z,97256.31
2023-04-16T08:58:26.225Z,97255.25
2023-04-16T09:01:12.178Z,97258.78
2023-04-16T09:03:58.020Z,97256.00
2023-04-16T09:06:44.292Z,97252.78
2023-04-16T09:09:32.335Z,97257.34
2023-04-16T09:12:23.355Z,97265.00
2023-04-16T09:15:11.322Z,97261.59
2023-04-16T09:17:57.710Z,97271.59
2023-04-16T09:20:43.107Z,97260.38
2023-04-16T09:23:29.730Z,97264.47
2023-04-16T09:26:16.218Z,97265.44
2023-04-16T09:29:02.399Z,97272.41
2023-04-16T09:32:08.586Z,97263.41
2023-04-16T09:34:59.747Z,97268.75
2023-04-16T09:37:56.081Z,97273.84
2023-04-16T09:40:42.080Z,97269.94
2023-04-16T09:43:27.770Z,97271.53
2023-04-16T09:46:13.315Z,97271.09
2023-04-16T09:48:58.718Z,97277.56
2023-04-16T09:51:49.755Z,97270.47
2023-04-16T09:54:35.269Z,97274.50
2023-04-16T09:57:22.186Z,97275.72
2023-04-16T10:00:09.486Z,97272.69
2023-04-16T10:03:05.880Z,97268.97
2023-04-16T10:05:53.950Z,97268.13
2023-04-16T10:08:44.223Z,97273.94
2023-04-16T10:11:30.900Z,97275.81
2023-04-16T10:14:16.280Z,97272.03
2023-04-16T10:17:03.574Z,97273.81
2023-04-16T10:19:50.835Z,97272.56
2023-04-16T10:22:37.106Z,97274.78
2023-04-16T10:25:23.381Z,97275.94
2023-04-16T10:28:14.233Z,97272.22
2023-04-16T10:31:02.459Z,97276.19
2023-04-16T10:33:48.192Z,97273.69
2023-04-16T10:36:37.309Z,97283.72
2023-04-16T10:39:24.574Z,97277.66
2023-04-16T10:42:12.522Z,97274.38
2023-04-16T10:45:00.703Z,97278.81
2023-04-16T10:47:46.407Z,97278.44
2023-04-16T10:50:38.247Z,97279.63
2023-04-16T10:53:27.770Z,97279.28
2023-04-16T10:56:13.366Z,97284.91
2023-04-16T10:58:58.678Z,97286.13
2023-04-16T11:01:46.481Z,97284.03
2023-04-16T11:04:37.221Z,97286.78
2023-04-16T11:07:33.776Z,97278.75
2023-04-16T11:10:19.245Z,97278.81
2023-04-16T11:13:06.559Z,97275.50
2023-04-16T11:15:52.072Z,97270.00
2023-04-16T11:18:41.640Z,97270.84
2023-04-16T11:21:37.065Z,97272.25
2023-04-16T11:24:23.654Z,97274.38
2023-04-16T11:27:12.751Z,97279.94
2023-04-16T11:30:04.229Z,97274.63
2023-04-16T11:32:50.726Z,97274.84
2023-04-16T11:35:37.347Z,97272.34
2023-04-16T11:38:33.178Z,97272.16
2023-04-16T11:41:22.087Z,97271.78
2023-04-16T11:44:27.398Z,97276.53
2023-04-16T11:47:13.892Z,97273.78
2023-04-16T11:50:25.690Z,97269.50
2023-04-16T11:53:11.377Z,97274.31
2023-04-16T11:55:57.240Z,97267.88
2023-04-16T11:58:43.469Z,97275.84
2023-04-16T12:01:28.984Z,97273.06
2023-04-16T12:04:16.550Z,97261.41
2023-04-16T12:07:08.760Z,97270.25
2023-04-16T12:10:06.542Z,97265.03
2023-04-16T12:12:52.010Z,97271.75
2023-04-16T12:15:48.614Z,97273.97
2023-04-16T12:18:34.218Z,97267.38
2023-04-16T12:21:19.614Z,97275.19
2023-04-16T12:24:06.510Z,97269.06
2023-04-16T12:26:57.574Z,97270.69
2023-04-16T12:29:42.953Z,97271.59
2023-04-16T12:32:28.558Z,97267.69
2023-04-16T12:35:28.886Z,97270.25
2023-04-16T12:38:17.486Z,97261.25
2023-04-16T12:41:02.797Z,97265.81
2023-04-16T12:43:48.188Z,97268.50
2023-04-16T12:46:33.818Z,97273.56
2023-04-16T12:49:19.359Z,97266.34
2023-04-16T12:52:04.997Z,97259.63
2023-04-16T12:54:51.161Z,97264.91
2023-04-16T12:57:36.755Z,97276.31
2023-04-16T13:00:22.691Z,97276.25
2023-04-16T13:03:08.446Z,97270.81
2023-04-16T13:05:54.278Z,97270.25
2023-04-16T13:08:39.831Z,97269.19
2023-04-16T13:11:25.635Z,97271.59
2023-04-16T13:14:11.443Z,97266.53
2023-04-16T13:16:57.198Z,97277.28
2023-04-16T13:19:42.508Z,97274.31
2023-04-16T13:22:29.909Z,97269.78
2023-04-16T13:25:15.685Z,97275.34
2023-04-16T13:28:01.328Z,97273.19
2023-04-16T13:30:47.165Z,97264.63
2023-04-16T13:33:33.135Z,97275.25
2023-04-16T13:36:18.674Z,97271.19
2023-04-16T13:39:11.472Z,97277.75
2023-04-16T13:41:57.069Z,97277.69
2023-04-16T13:44:42.742Z,97275.97
2023-04-16T13:47:28.612Z,97268.69
2023-04-16T13:50:14.335Z,97280.22
2023-04-16T13:53:00.769Z,97274.88
2023-04-16T13:55:46.696Z,97276.44
2023-04-16T13:58:31.995Z,97276.91
2023-04-16T14:01:18.080Z,97276.09
2023-04-16T14:04:06.614Z,97281.38
2023-04-16T14:06:52.744Z,97279.47
2023-04-16T14:09:38.217Z,97281.81
2023-04-16T14:12:24.066Z,97279.28
2023-04-16T14:15:10.321Z,97276.81
2023-04-16T14:17:56.195Z,97277.75
2023-04-16T14:20:41.741Z,97272.63
2023-04-16T14:23:27.074Z,97273.69
2023-04-16T14:26:12.639Z,97275.53
2023-04-16T14:28:57.841Z,97270.97
2023-04-16T14:31:43.715Z,97270.88
2023-04-16T14:34:29.080Z,97266.63
2023-04-16T14:37:16.705Z,97270.88
2023-04-16T14:40:08.340Z,97268.22
2023-04-16T14:42:53.975Z,97271.19
2023-04-16T14:45:39.445Z,97272.03
2023-04-16T14:48:24.772Z,97277.34
2023-04-16T14:51:10.501Z,97272.13
2023-04-16T14:53:56.278Z,97276.44
2023-04-16T14:56:42.273Z,97281.13
2023-04-16T14:59:28.437Z,97274.97
2023-04-16T15:02:14.568Z,97283.66
2023-04-16T15:05:00.270Z,97278.03
2023-04-16T15:07:46.257Z,97284.53
2023-04-16T15:10:32.794Z,97285.94
2023-04-16T15:13:19.230Z,97279.84
2023-04-16T15:16:05.414Z,97287.41
2023-04-16T15:18:51.213Z,97282.06
2023-04-16T15:21:36.858Z,97282.81
2023-04-16T15:24:22.548Z,97285.75
2023-04-16T15:27:11.626Z,97289.72
2023-04-16T15:29:57.692Z,97289.41
2023-04-16T15:32:46.451Z,97290.16
2023-04-16T15:35:32.150Z,97298.44
2023-04-16T15:38:18.846Z,97315.47
2023-04-16T15:41:04.713Z,97307.16
2023-04-16T15:43:50.612Z,97309.19
2023-04-16T15:46:36.389Z,97305.66
2023-04-16T15:49:21.533Z,97303.41
2023-04-16T15:52:07.264Z,97304.97
2023-04-16T15:54:52.834Z,97320.44
2023-04-16T15:57:38.599Z,97311.69
2023-04-16T16:00:24.168Z,97310.09
2023-04-16T16:03:10.521Z,97315.22
2023-04-16T16:05:58.197Z,97312.88
2023-04-16T16:08:44.898Z,97313.31
2023-04-16T16:11:30.408Z,97313.84
2023-04-16T16:14:18.573Z,97304.09
2023-04-16T16:17:04.023Z,97307.94
2023-04-16T16:19:49.469Z,97308.09
2023-04-16T16:22:34.720Z,97315.97
2023-04-16T16:25:20.505Z,97316.44
2023-04-16T16:28:06.697Z,97315.88
2023-04-16T16:30:54.782Z,97325.94
2023-04-16T16:33:40.797Z,97322.13
2023-04-16T16:36:27.508Z,97323.06
2023-04-16T16:39:13.335Z,97322.53
2023-04-16T16:41:59.085Z,97326.22
2023-04-16T16:44:46.804Z,97326.66
2023-04-16T16:47:33.099Z,97323.91
2023-04-16T16:50:18.554Z,97318.75
2023-04-16T16:53:03.880Z,97324.19
2023-04-16T16:55:49.293Z,97323.06
2023-04-16T16:58:34.577Z,97321.88
2023-04-16T17:01:20.016Z,97322.81
2023-04-16T17:04:05.966Z,97321.69
2023-04-16T17:06:52.004Z,97318.94
2023-04-16T17:09:38.850Z,97325.06
2023-04-16T17:12:25.253Z,97330.72
2023-04-16T17:15:11.456Z,97337.41
2023-04-16T17:17:57.195Z,97335.09
2023-04-16T17:20:42.671Z,97340.72
2023-04-16T17:23:28.283Z,97338.19
2023-04-16T17:26:13.624Z,97349.50
2023-04-16T17:28:59.379Z,97352.47
2023-04-16T17:31:45.012Z,97352.22
2023-04-16T17:34:30.841Z,97360.34
2023-04-16T17:37:16.404Z,97362.41
2023-04-16T17:40:02.037Z,97361.91
2023-04-16T17:42:49.055Z,97361.19
2023-04-16T17:45:34.576Z,97359.69
2023-04-16T17:48:20.148Z,97363.28
2023-04-16T17:51:11.356Z,97368.25
2023-04-16T17:53:57.063Z,97373.19
2023-04-16T17:56:42.450Z,97367.66
2023-04-16T17:59:27.967Z,97374.94
2023-04-16T18:02:13.476Z,97379.47
2023-04-16T18:04:59.345Z,97378.78
2023-04-16T18:07:46.464Z,97388.00
2023-04-16T18:10:32.914Z,97386.94
2023-04-16T18:13:18.784Z,97386.69
2023-04-16T18:16:04.162Z,97387.00
2023-04-16T18:18:49.514Z,97391.94
2023-04-16T18:21:35.755Z,97394.81
2023-04-16T18:24:21.646Z,97397.47
2023-04-16T18:27:07.380Z,97400.16
2023-04-16T18:29:54.839Z,97409.53
2023-04-16T18:32:59.891Z,97405.88
2023-04-16T18:35:46.702Z,97403.06
2023-04-16T18:38:32.722Z,97408.94
2023-04-16T18:41:19.389Z,97412.41
2023-04-16T18:44:05.149Z,97417.31
2023-04-16T18:46:51.287Z,97420.78
2023-04-16T18:49:36.862Z,97424.63
2023-04-16T18:52:22.450Z,97425.88
2023-04-16T18:55:08.400Z,97426.28
2023-04-16T18:57:55.141Z,97425.88
2023-04-16T19:00:40.916Z,97430.38
2023-04-16T19:03:31.009Z,97441.50
2023-04-16T19:06:16.782Z,97446.38
2023-04-16T19:09:02.146Z,97435.19
2023-04-16T19:11:50.561Z,97444.13
2023-04-16T19:14:36.082Z,97455.47
2023-04-16T19:17:21.816Z,97462.56
2023-04-16T19:20:11.449Z,97462.56
2023-04-16T19:22:57.074Z,97459.94
2023-04-16T19:25:42.788Z,97470.69
2023-04-16T19:28:28.492Z,97465.59
2023-04-16T19:31:13.974Z,97469.63
2023-04-16T19:33:59.344Z,97465.63
2023-04-16T19:36:46.059Z,97466.81
2023-04-16T19:39:32.581Z,97473.34
2023-04-16T19:42:18.381Z,97473.72
2023-04-16T19:45:04.087Z,97485.72
2023-04-16T19:47:51.255Z,97485.28
2023-04-16T19:50:40.416Z,97486.50
2023-04-16T19:53:25.634Z,97486.13
2023-04-16T19:56:11.255Z,97486.72
2023-04-16T19:58:57.058Z,97487.31
2023-04-16T20:01:42.808Z,97489.56
2023-04-16T20:04:28.400Z,97500.72
2023-04-16T20:07:13.804Z,97503.78
2023-04-16T20:09:59.133Z,97509.44
2023-04-16T20:12:44.898Z,97510.88
2023-04-16T20:15:30.119Z,97510.66
2023-04-16T20:18:15.501Z,97504.97
2023-04-16T20:21:03.774Z,97512.69
2023-04-16T20:23:49.278Z,97512.69
2023-04-16T20:26:36.493Z,97513.72
2023-04-16T20:29:22.182Z,97503.38
2023-04-16T20:32:07.687Z,97508.66
2023-04-16T20:34:53.771Z,97499.91
2023-04-16T20:37:39.870Z,97501.75
2023-04-16T20:40:30.264Z,97503.75
2023-04-16T20:43:18.723Z,97496.66
2023-04-16T20:46:07.926Z,97504.75
2023-04-16T20:48:53.614Z,97494.81
2023-04-16T20:51:39.031Z,97503.94
2023-04-16T20:54:24.612Z,97503.34
2023-04-16T20:57:10.779Z,97496.84
2023-04-16T20:59:56.473Z,97497.84
2023-04-16T21:02:43.515Z,97505.16
2023-04-16T21:05:30.044Z,97504.53
2023-04-16T21:08:17.255Z,97509.81
2023-04-16T21:11:02.745Z,97506.56
2023-04-16T21:13:48.410Z,97506.97
2023-04-16T21:16:33.913Z,97512.84
2023-04-16T21:19:20.110Z,97521.53
2023-04-16T21:22:05.754Z,97518.06
2023-04-16T21:24:51.319Z,97513.00
2023-04-16T21:27:36.775Z,97519.47
2023-04-16T21:30:22.749Z,97522.69
2023-04-16T21:33:08.119Z,97514.16
2023-04-16T21:35:54.202Z,97513.72
2023-04-16T21:38:39.899Z,97521.81
2023-04-16T21:41:25.289Z,97517.75
2023-04-16T21:44:11.173Z,97517.16
2023-04-16T21:46:57.239Z,97513.09
2023-04-16T21:49:42.812Z,97520.56
2023-04-16T21:52:28.589Z,97512.25
2023-04-16T21:55:17.017Z,97519.72
2023-04-16T21:58:03.875Z,97514.03
2023-04-16T22:00:49.519Z,97517.25
2023-04-16T22:03:40.274Z,97524.94
2023-04-16T22:06:27.292Z,97525.28
2023-04-16T22:09:13.014Z,97522.25
2023-04-16T22:12:00.387Z,97526.06
2023-04-16T22:14:59.503Z,97531.75
2023-04-16T22:17:48.532Z,97528.06
2023-04-16T22:20:38.869Z,97527.03
2023-04-16T22:23:25.763Z,97529.81
2023-04-16T22:26:12.878Z,97520.84
2023-04-16T22:28:58.530Z,97519.81
2023-04-16T22:31:44.119Z,97525.03
2023-04-16T22:34:29.872Z,97522.97
2023-04-16T22:37:15.967Z,97525.78
2023-04-16T22:40:01.668Z,97523.56
2023-04-16T22:42:47.797Z,97516.47
2023-04-16T22:45:33.382Z,97518.31
2023-04-16T22:48:18.754Z,97518.91
2023-04-16T22:51:13.239Z,97517.69
2023-04-16T22:53:58.512Z,97514.69
2023-04-16T22:56:43.882Z,97519.56
2023-04-16T22:59:29.372Z,97521.81
2023-04-16T23:02:14.803Z,97514.38
2023-04-16T23:05:00.763Z,97517.41
2023-04-16T23:07:46.423Z,97513.59
2023-04-16T23:10:32.137Z,97519.91
2023-04-16T23:13:17.868Z,97515.88
2023-04-16T23:16:03.562Z,97511.84
2023-04-16T23:18:48.913Z,97514.91
2023-04-16T23:21:34.336Z,97515.53
2023-04-16T23:24:19.842Z,97516.31
2023-04-16T23:27:05.460Z,97513.09
2023-04-16T23:29:50.748Z,97511.66
2023-04-16T23:32:36.618Z,97508.78
2023-04-16T23:35:23.003Z,97510.38
2023-04-16T23:38:08.645Z,97517.22
2023-04-16T23:40:54.024Z,97506.03
2023-04-16T23:43:40.723Z,97512.44
2023-04-16T23:46:26.358Z,97508.13
2023-04-16T23:49:12.320Z,97512.25
2023-04-16T23:51:57.785Z,97505.31
2023-04-16T23:54:43.212Z,97507.69
2023-04-16T23:57:28.600Z,97507.47
